sensor_id;sensor_type;location;lat;lon;timestamp;pressure;altitude;pressure_sealevel;temperature;humidity
10115;BME280;5097;43.260;27.812;2023-01-28T00:02:19;99311.47;;;2.98;86.92
10115;BME280;5097;43.260;27.812;2023-01-28T00:05:04;99356.53;;;3.28;87.68
10115;BME280;5097;43.260;27.812;2023-01-28T00:07:49;99304.84;;;2.88;88.01
10115;BME280;5097;43.260;27.812;2023-01-28T00:10:33;99322.47;;;2.81;88.37
10115;BME280;5097;43.260;27.812;2023-01-28T00:13:18;99331.81;;;2.88;88.44
10115;BME280;5097;43.260;27.812;2023-01-28T00:16:04;99337.63;;;2.96;88.13
10115;BME280;5097;43.260;27.812;2023-01-28T00:18:48;99377.47;;;3.00;88.48
10115;BME280;5097;43.260;27.812;2023-01-28T00:21:33;99328.94;;;2.71;88.14
10115;BME280;5097;43.260;27.812;2023-01-28T00:24:17;99327.50;;;2.87;88.79
10115;BME280;5097;43.260;27.812;2023-01-28T00:27:01;99339.72;;;3.10;87.25
10115;BME280;5097;43.260;27.812;2023-01-28T00:29:46;99325.03;;;2.82;88.26
10115;BME280;5097;43.260;27.812;2023-01-28T00:32:30;99340.75;;;2.27;89.53
10115;BME280;5097;43.260;27.812;2023-01-28T00:35:14;99339.03;;;2.26;90.81
10115;BME280;5097;43.260;27.812;2023-01-28T00:37:59;99386.09;;;2.77;90.80
10115;BME280;5097;43.260;27.812;2023-01-28T00:40:44;99333.94;;;2.23;91.52
10115;BME280;5097;43.260;27.812;2023-01-28T00:43:28;99339.97;;;2.52;90.60
10115;BME280;5097;43.260;27.812;2023-01-28T00:46:14;99347.56;;;2.58;90.77
10115;BME280;5097;43.260;27.812;2023-01-28T00:48:58;99381.03;;;2.45;92.18
10115;BME280;5097;43.260;27.812;2023-01-28T00:51:43;99336.81;;;2.14;93.49
10115;BME280;5097;43.260;27.812;2023-01-28T00:54:30;99344.53;;;2.17;92.93
10115;BME280;5097;43.260;27.812;2023-01-28T00:57:14;99401.31;;;2.62;92.98
10115;BME280;5097;43.260;27.812;2023-01-28T00:59:59;99367.75;;;1.96;93.02
10115;BME280;5097;43.260;27.812;2023-01-28T01:02:47;99345.75;;;1.77;94.06
10115;BME280;5097;43.260;27.812;2023-01-28T01:05:31;99387.59;;;2.00;94.25
10115;BME280;5097;43.260;27.812;2023-01-28T01:08:15;99399.78;;;2.00;94.52
10115;BME280;5097;43.260;27.812;2023-01-28T01:10:59;99340.47;;;1.80;95.14
10115;BME280;5097;43.260;27.812;2023-01-28T01:13:49;99389.44;;;1.97;93.84
10115;BME280;5097;43.260;27.812;2023-01-28T01:16:33;99357.66;;;1.86;93.61
10115;BME280;5097;43.260;27.812;2023-01-28T01:19:19;99340.47;;;1.80;94.02
10115;BME280;5097;43.260;27.812;2023-01-28T01:22:03;99365.75;;;2.05;94.01
10115;BME280;5097;43.260;27.812;2023-01-28T01:24:48;99404.72;;;2.38;93.60
10115;BME280;5097;43.260;27.812;2023-01-28T01:27:32;99425.22;;;1.92;93.86
10115;BME280;5097;43.260;27.812;2023-01-28T01:30:16;99383.38;;;1.96;94.57
10115;BME280;5097;43.260;27.812;2023-01-28T01:33:02;99412.94;;;2.24;93.19
10115;BME280;5097;43.260;27.812;2023-01-28T01:35:53;99365.84;;;1.73;93.44
10115;BME280;5097;43.260;27.812;2023-01-28T01:38:37;99358.91;;;1.72;93.46
10115;BME280;5097;43.260;27.812;2023-01-28T01:41:26;99371.16;;;1.68;93.19
10115;BME280;5097;43.260;27.812;2023-01-28T01:47:32;99424.09;;;1.69;93.90
10115;BME280;5097;43.260;27.812;2023-01-28T01:50:23;99422.97;;;1.78;93.83
10115;BME280;5097;43.260;27.812;2023-01-28T01:53:15;99397.66;;;1.20;94.53
10115;BME280;5097;43.260;27.812;2023-01-28T01:56:04;99371.47;;;1.26;94.21
10115;BME280;5097;43.260;27.812;2023-01-28T01:58:51;99402.06;;;1.16;94.12
10115;BME280;5097;43.260;27.812;2023-01-28T02:01:36;99440.22;;;1.50;93.77
10115;BME280;5097;43.260;27.812;2023-01-28T02:04:24;99435.38;;;1.70;93.85
10115;BME280;5097;43.260;27.812;2023-01-28T02:07:11;99401.69;;;1.32;93.28
10115;BME280;5097;43.260;27.812;2023-01-28T02:09:58;99450.09;;;1.38;93.58
10115;BME280;5097;43.260;27.812;2023-01-28T02:12:45;99441.13;;;1.49;93.88
10115;BME280;5097;43.260;27.812;2023-01-28T02:15:30;99381.78;;;0.98;93.95
10115;BME280;5097;43.260;27.812;2023-01-28T02:18:14;99406.06;;;0.97;93.92
10115;BME280;5097;43.260;27.812;2023-01-28T02:21:30;99399.94;;;0.99;93.68
10115;BME280;5097;43.260;27.812;2023-01-28T02:24:46;99439.69;;;1.05;94.04
10115;BME280;5097;43.260;27.812;2023-01-28T02:27:47;99450.00;;;1.08;93.92
10115;BME280;5097;43.260;27.812;2023-01-28T02:30:35;99447.44;;;1.41;93.02
10115;BME280;5097;43.260;27.812;2023-01-28T02:33:28;99434.63;;;0.62;93.86
10115;BME280;5097;43.260;27.812;2023-01-28T02:36:18;99447.28;;;1.12;93.73
10115;BME280;5097;43.260;27.812;2023-01-28T02:39:08;99417.53;;;0.52;93.78
10115;BME280;5097;43.260;27.812;2023-01-28T02:42:03;99434.88;;;0.52;94.02
10115;BME280;5097;43.260;27.812;2023-01-28T02:44:51;99430.72;;;0.43;93.60
10115;BME280;5097;43.260;27.812;2023-01-28T02:47:35;99436.22;;;0.30;94.21
10115;BME280;5097;43.260;27.812;2023-01-28T02:50:41;99439.94;;;0.20;93.66
10115;BME280;5097;43.260;27.812;2023-01-28T02:53:33;99457.19;;;0.21;93.18
10115;BME280;5097;43.260;27.812;2023-01-28T02:56:31;99463.94;;;0.30;93.48
10115;BME280;5097;43.260;27.812;2023-01-28T02:59:26;99466.97;;;0.10;93.70
10115;BME280;5097;43.260;27.812;2023-01-28T03:02:27;99526.84;;;0.46;93.03
10115;BME280;5097;43.260;27.812;2023-01-28T03:05:16;99503.09;;;0.21;93.94
10115;BME280;5097;43.260;27.812;2023-01-28T03:08:05;99514.88;;;0.37;93.50
10115;BME280;5097;43.260;27.812;2023-01-28T03:11:03;99519.72;;;0.12;93.72
10115;BME280;5097;43.260;27.812;2023-01-28T03:14:06;99505.66;;;0.22;94.12
10115;BME280;5097;43.260;27.812;2023-01-28T03:17:14;99519.09;;;0.01;94.36
10115;BME280;5097;43.260;27.812;2023-01-28T03:20:19;99506.41;;;-0.15;95.24
10115;BME280;5097;43.260;27.812;2023-01-28T03:23:27;99534.16;;;-0.17;94.76
10115;BME280;5097;43.260;27.812;2023-01-28T03:26:30;99518.47;;;-0.12;94.88
10115;BME280;5097;43.260;27.812;2023-01-28T03:29:34;99526.28;;;-0.14;94.06
10115;BME280;5097;43.260;27.812;2023-01-28T03:32:37;99508.44;;;-0.31;94.28
10115;BME280;5097;43.260;27.812;2023-01-28T03:35:42;99513.63;;;-0.29;94.62
10115;BME280;5097;43.260;27.812;2023-01-28T03:38:44;99523.78;;;-0.19;95.05
10115;BME280;5097;43.260;27.812;2023-01-28T03:41:31;99522.69;;;-0.07;94.70
10115;BME280;5097;43.260;27.812;2023-01-28T03:44:15;99511.75;;;-0.24;94.32
10115;BME280;5097;43.260;27.812;2023-01-28T03:47:17;99533.31;;;-0.19;95.19
10115;BME280;5097;43.260;27.812;2023-01-28T03:50:02;99532.69;;;-0.34;93.99
10115;BME280;5097;43.260;27.812;2023-01-28T03:52:56;99556.72;;;-0.22;93.89
10115;BME280;5097;43.260;27.812;2023-01-28T03:56:00;99552.09;;;-0.05;93.65
10115;BME280;5097;43.260;27.812;2023-01-28T03:58:44;99522.75;;;-0.10;92.97
10115;BME280;5097;43.260;27.812;2023-01-28T04:01:35;99553.63;;;0.06;92.63
10115;BME280;5097;43.260;27.812;2023-01-28T04:04:19;99545.25;;;-0.09;92.79
10115;BME280;5097;43.260;27.812;2023-01-28T04:07:10;99563.78;;;0.18;92.58
10115;BME280;5097;43.260;27.812;2023-01-28T04:10:17;99558.31;;;-0.15;92.34
10115;BME280;5097;43.260;27.812;2023-01-28T04:13:04;99547.19;;;-0.22;91.90
10115;BME280;5097;43.260;27.812;2023-01-28T04:15:48;99568.00;;;-0.23;92.03
10115;BME280;5097;43.260;27.812;2023-01-28T04:18:33;99568.69;;;-0.12;92.41
10115;BME280;5097;43.260;27.812;2023-01-28T04:21:18;99571.56;;;0.18;92.35
10115;BME280;5097;43.260;27.812;2023-01-28T04:24:03;99534.00;;;-0.11;91.73
10115;BME280;5097;43.260;27.812;2023-01-28T04:26:49;99579.97;;;-0.14;91.22
10115;BME280;5097;43.260;27.812;2023-01-28T04:29:33;99587.72;;;-0.13;91.75
10115;BME280;5097;43.260;27.812;2023-01-28T04:32:52;99603.38;;;-0.16;91.18
10115;BME280;5097;43.260;27.812;2023-01-28T04:36:00;99579.06;;;-0.12;91.89
10115;BME280;5097;43.260;27.812;2023-01-28T04:39:13;99575.84;;;-0.26;92.03
10115;BME280;5097;43.260;27.812;2023-01-28T04:42:14;99586.22;;;-0.26;92.47
10115;BME280;5097;43.260;27.812;2023-01-28T04:45:10;99591.28;;;-0.19;92.76
10115;BME280;5097;43.260;27.812;2023-01-28T04:48:05;99594.06;;;-0.28;93.17
10115;BME280;5097;43.260;27.812;2023-01-28T04:51:00;99618.06;;;-0.17;91.53
10115;BME280;5097;43.260;27.812;2023-01-28T04:53:56;99579.53;;;-0.40;92.08
10115;BME280;5097;43.260;27.812;2023-01-28T04:56:43;99602.97;;;-0.44;92.14
10115;BME280;5097;43.260;27.812;2023-01-28T04:59:29;99589.53;;;-0.18;91.56
10115;BME280;5097;43.260;27.812;2023-01-28T05:02:13;99554.41;;;-0.36;92.11
10115;BME280;5097;43.260;27.812;2023-01-28T05:04:59;99590.72;;;-0.36;92.31
10115;BME280;5097;43.260;27.812;2023-01-28T05:07:57;99594.97;;;-0.30;92.29
10115;BME280;5097;43.260;27.812;2023-01-28T05:10:41;99608.91;;;-0.38;91.83
10115;BME280;5097;43.260;27.812;2023-01-28T05:13:25;99614.66;;;-0.20;91.35
10115;BME280;5097;43.260;27.812;2023-01-28T05:16:10;99594.69;;;-0.17;91.59
10115;BME280;5097;43.260;27.812;2023-01-28T05:18:54;99602.59;;;-0.21;91.28
10115;BME280;5097;43.260;27.812;2023-01-28T05:21:39;99617.38;;;-0.26;91.23
10115;BME280;5097;43.260;27.812;2023-01-28T05:24:39;99603.53;;;-0.25;92.05
10115;BME280;5097;43.260;27.812;2023-01-28T05:27:24;99611.81;;;-0.05;91.81
10115;BME280;5097;43.260;27.812;2023-01-28T05:30:09;99628.56;;;-0.23;92.30
10115;BME280;5097;43.260;27.812;2023-01-28T05:32:56;99631.38;;;-0.37;92.32
10115;BME280;5097;43.260;27.812;2023-01-28T05:35:41;99663.53;;;-0.47;92.96
10115;BME280;5097;43.260;27.812;2023-01-28T05:38:25;99644.22;;;-0.27;92.44
10115;BME280;5097;43.260;27.812;2023-01-28T05:41:09;99616.72;;;-0.39;92.36
10115;BME280;5097;43.260;27.812;2023-01-28T05:43:53;99655.50;;;-0.30;92.11
10115;BME280;5097;43.260;27.812;2023-01-28T05:46:51;99659.31;;;0.01;91.59
10115;BME280;5097;43.260;27.812;2023-01-28T05:50:02;99665.97;;;-0.35;91.07
10115;BME280;5097;43.260;27.812;2023-01-28T05:52:52;99657.03;;;-0.18;90.40
10115;BME280;5097;43.260;27.812;2023-01-28T05:55:40;99663.84;;;-0.11;89.93
10115;BME280;5097;43.260;27.812;2023-01-28T05:58:24;99682.91;;;-0.13;90.05
10115;BME280;5097;43.260;27.812;2023-01-28T06:01:16;99661.22;;;-0.11;89.83
10115;BME280;5097;43.260;27.812;2023-01-28T06:04:06;99681.84;;;-0.02;89.97
10115;BME280;5097;43.260;27.812;2023-01-28T06:06:52;99700.44;;;-0.26;90.28
10115;BME280;5097;43.260;27.812;2023-01-28T06:09:36;99685.63;;;-0.20;89.85
10115;BME280;5097;43.260;27.812;2023-01-28T06:12:20;99681.94;;;-0.06;90.73
10115;BME280;5097;43.260;27.812;2023-01-28T06:15:24;99648.81;;;-0.45;91.14
10115;BME280;5097;43.260;27.812;2023-01-28T06:18:47;99695.97;;;-0.18;90.47
10115;BME280;5097;43.260;27.812;2023-01-28T06:21:31;99695.94;;;-0.17;89.98
10115;BME280;5097;43.260;27.812;2023-01-28T06:24:16;99699.41;;;-0.14;89.43
10115;BME280;5097;43.260;27.812;2023-01-28T06:27:01;99703.59;;;-0.07;89.24
10115;BME280;5097;43.260;27.812;2023-01-28T06:29:45;99713.13;;;-0.08;89.26
10115;BME280;5097;43.260;27.812;2023-01-28T06:32:29;99697.84;;;-0.26;89.73
10115;BME280;5097;43.260;27.812;2023-01-28T06:35:14;99710.56;;;-0.11;89.64
10115;BME280;5097;43.260;27.812;2023-01-28T06:37:57;99734.94;;;-0.18;88.23
10115;BME280;5097;43.260;27.812;2023-01-28T06:40:43;99715.84;;;-0.15;88.87
10115;BME280;5097;43.260;27.812;2023-01-28T06:43:26;99712.44;;;-0.19;89.35
10115;BME280;5097;43.260;27.812;2023-01-28T06:46:12;99709.09;;;-0.27;88.92
10115;BME280;5097;43.260;27.812;2023-01-28T06:48:56;99735.16;;;-0.32;88.79
10115;BME280;5097;43.260;27.812;2023-01-28T06:51:39;99691.66;;;-0.19;89.20
10115;BME280;5097;43.260;27.812;2023-01-28T06:54:23;99724.47;;;-0.15;88.81
10115;BME280;5097;43.260;27.812;2023-01-28T06:57:08;99710.72;;;-0.20;87.82
10115;BME280;5097;43.260;27.812;2023-01-28T06:59:52;99733.91;;;-0.08;87.59
10115;BME280;5097;43.260;27.812;2023-01-28T07:02:36;99725.88;;;0.06;87.35
10115;BME280;5097;43.260;27.812;2023-01-28T07:05:20;99729.09;;;0.22;86.49
10115;BME280;5097;43.260;27.812;2023-01-28T07:08:04;99724.91;;;0.12;86.62
10115;BME280;5097;43.260;27.812;2023-01-28T07:10:48;99718.38;;;0.41;85.90
10115;BME280;5097;43.260;27.812;2023-01-28T07:13:33;99713.50;;;0.22;86.11
10115;BME280;5097;43.260;27.812;2023-01-28T07:16:17;99741.03;;;0.32;85.72
10115;BME280;5097;43.260;27.812;2023-01-28T07:19:01;99727.47;;;0.15;86.61
10115;BME280;5097;43.260;27.812;2023-01-28T07:21:44;99721.56;;;0.05;86.66
10115;BME280;5097;43.260;27.812;2023-01-28T07:24:29;99722.47;;;0.03;86.07
10115;BME280;5097;43.260;27.812;2023-01-28T07:27:13;99743.09;;;0.12;85.44
10115;BME280;5097;43.260;27.812;2023-01-28T07:29:58;99689.56;;;0.05;85.97
10115;BME280;5097;43.260;27.812;2023-01-28T07:32:45;99722.00;;;0.30;86.33
10115;BME280;5097;43.260;27.812;2023-01-28T07:35:30;99704.28;;;0.03;85.79
10115;BME280;5097;43.260;27.812;2023-01-28T07:38:14;99720.56;;;0.14;86.76
10115;BME280;5097;43.260;27.812;2023-01-28T07:40:58;99735.56;;;0.48;87.01
10115;BME280;5097;43.260;27.812;2023-01-28T07:43:42;99723.22;;;0.09;86.52
10115;BME280;5097;43.260;27.812;2023-01-28T07:46:28;99718.72;;;0.21;86.18
10115;BME280;5097;43.260;27.812;2023-01-28T07:49:12;99732.56;;;0.21;86.69
10115;BME280;5097;43.260;27.812;2023-01-28T07:51:56;99724.72;;;0.23;86.32
10115;BME280;5097;43.260;27.812;2023-01-28T07:54:40;99732.81;;;0.56;86.01
10115;BME280;5097;43.260;27.812;2023-01-28T07:57:23;99709.03;;;0.29;85.45
10115;BME280;5097;43.260;27.812;2023-01-28T08:00:09;99717.16;;;0.60;85.49
10115;BME280;5097;43.260;27.812;2023-01-28T08:02:57;99718.47;;;0.35;84.50
10115;BME280;5097;43.260;27.812;2023-01-28T08:05:43;99707.28;;;0.29;85.25
10115;BME280;5097;43.260;27.812;2023-01-28T08:08:28;99717.88;;;0.19;85.00
10115;BME280;5097;43.260;27.812;2023-01-28T08:11:12;99706.13;;;0.47;84.81
10115;BME280;5097;43.260;27.812;2023-01-28T08:13:56;99726.53;;;0.68;83.23
10115;BME280;5097;43.260;27.812;2023-01-28T08:16:39;99645.38;;;0.06;82.60
10115;BME280;5097;43.260;27.812;2023-01-28T08:19:25;99719.25;;;0.40;82.40
10115;BME280;5097;43.260;27.812;2023-01-28T08:22:09;99730.34;;;0.48;81.95
10115;BME280;5097;43.260;27.812;2023-01-28T08:24:53;99769.63;;;0.81;80.61
10115;BME280;5097;43.260;27.812;2023-01-28T08:27:37;99763.19;;;0.52;81.38
10115;BME280;5097;43.260;27.812;2023-01-28T08:30:20;99743.00;;;0.66;81.67
10115;BME280;5097;43.260;27.812;2023-01-28T08:33:05;99756.09;;;0.63;81.46
10115;BME280;5097;43.260;27.812;2023-01-28T08:35:50;99743.50;;;0.87;80.91
10115;BME280;5097;43.260;27.812;2023-01-28T08:38:34;99753.63;;;0.56;81.00
10115;BME280;5097;43.260;27.812;2023-01-28T08:41:19;99772.94;;;1.33;80.77
10115;BME280;5097;43.260;27.812;2023-01-28T08:44:03;99800.34;;;1.06;79.40
10115;BME280;5097;43.260;27.812;2023-01-28T08:46:46;99809.28;;;1.77;77.92
10115;BME280;5097;43.260;27.812;2023-01-28T08:49:30;99800.53;;;1.40;78.30
10115;BME280;5097;43.260;27.812;2023-01-28T08:52:16;99782.81;;;1.17;78.51
10115;BME280;5097;43.260;27.812;2023-01-28T08:54:59;99774.97;;;1.19;78.48
10115;BME280;5097;43.260;27.812;2023-01-28T08:57:44;99777.22;;;0.92;78.64
10115;BME280;5097;43.260;27.812;2023-01-28T09:00:28;99769.03;;;1.12;78.51
10115;BME280;5097;43.260;27.812;2023-01-28T09:03:12;99744.66;;;1.16;78.42
10115;BME280;5097;43.260;27.812;2023-01-28T09:05:59;99777.66;;;1.14;79.15
10115;BME280;5097;43.260;27.812;2023-01-28T09:08:45;99824.84;;;0.95;78.04
10115;BME280;5097;43.260;27.812;2023-01-28T09:11:29;99780.06;;;1.23;78.12
10115;BME280;5097;43.260;27.812;2023-01-28T09:14:12;99778.50;;;1.14;77.59
10115;BME280;5097;43.260;27.812;2023-01-28T09:16:56;99768.38;;;1.43;78.62
10115;BME280;5097;43.260;27.812;2023-01-28T09:19:40;99749.44;;;1.36;78.49
10115;BME280;5097;43.260;27.812;2023-01-28T09:22:24;99767.44;;;1.03;76.89
10115;BME280;5097;43.260;27.812;2023-01-28T09:25:09;99774.81;;;1.26;77.31
10115;BME280;5097;43.260;27.812;2023-01-28T09:27:53;99781.75;;;1.66;76.03
10115;BME280;5097;43.260;27.812;2023-01-28T09:30:37;99808.31;;;1.42;77.23
10115;BME280;5097;43.260;27.812;2023-01-28T09:33:21;99809.34;;;2.13;74.57
10115;BME280;5097;43.260;27.812;2023-01-28T09:36:07;99837.13;;;2.14;73.97
10115;BME280;5097;43.260;27.812;2023-01-28T09:38:52;99810.94;;;1.40;75.54
10115;BME280;5097;43.260;27.812;2023-01-28T09:41:53;99812.13;;;1.66;76.63
10115;BME280;5097;43.260;27.812;2023-01-28T09:44:49;99843.88;;;1.85;76.48
10115;BME280;5097;43.260;27.812;2023-01-28T09:47:38;99833.88;;;1.63;75.74
10115;BME280;5097;43.260;27.812;2023-01-28T09:50:29;99839.31;;;1.10;75.38
10115;BME280;5097;43.260;27.812;2023-01-28T09:53:17;99802.94;;;1.07;76.54
10115;BME280;5097;43.260;27.812;2023-01-28T09:56:03;99827.31;;;1.47;76.57
10115;BME280;5097;43.260;27.812;2023-01-28T09:58:50;99807.53;;;1.79;76.87
10115;BME280;5097;43.260;27.812;2023-01-28T10:01:38;99812.94;;;1.70;76.76
10115;BME280;5097;43.260;27.812;2023-01-28T10:04:38;99825.56;;;1.47;77.02
10115;BME280;5097;43.260;27.812;2023-01-28T10:07:33;99805.72;;;1.42;75.76
10115;BME280;5097;43.260;27.812;2023-01-28T10:10:25;99784.75;;;1.06;77.92
10115;BME280;5097;43.260;27.812;2023-01-28T10:13:18;99750.47;;;0.85;77.62
10115;BME280;5097;43.260;27.812;2023-01-28T10:16:15;99787.41;;;1.03;78.60
10115;BME280;5097;43.260;27.812;2023-01-28T10:19:05;99764.56;;;0.73;78.36
10115;BME280;5097;43.260;27.812;2023-01-28T10:21:53;99786.03;;;0.85;77.69
10115;BME280;5097;43.260;27.812;2023-01-28T10:24:42;99759.34;;;1.19;78.41
10115;BME280;5097;43.260;27.812;2023-01-28T10:27:29;99727.00;;;0.88;77.95
10115;BME280;5097;43.260;27.812;2023-01-28T10:30:19;99750.50;;;0.83;79.33
10115;BME280;5097;43.260;27.812;2023-01-28T10:33:21;99772.88;;;0.92;78.28
10115;BME280;5097;43.260;27.812;2023-01-28T10:36:07;99751.31;;;0.87;78.47
10115;BME280;5097;43.260;27.812;2023-01-28T10:38:52;99744.69;;;1.14;76.89
10115;BME280;5097;43.260;27.812;2023-01-28T10:41:35;99747.22;;;1.17;77.67
10115;BME280;5097;43.260;27.812;2023-01-28T10:44:40;99752.22;;;1.27;77.37
10115;BME280;5097;43.260;27.812;2023-01-28T10:47:29;99773.69;;;1.38;76.52
10115;BME280;5097;43.260;27.812;2023-01-28T10:50:21;99780.47;;;1.45;76.66
10115;BME280;5097;43.260;27.812;2023-01-28T10:53:05;99785.25;;;1.25;76.70
10115;BME280;5097;43.260;27.812;2023-01-28T10:55:52;99811.84;;;1.39;76.15
10115;BME280;5097;43.260;27.812;2023-01-28T10:58:55;99806.84;;;1.28;75.98
10115;BME280;5097;43.260;27.812;2023-01-28T11:01:43;99810.03;;;0.97;77.13
10115;BME280;5097;43.260;27.812;2023-01-28T11:04:30;99807.75;;;0.82;77.09
10115;BME280;5097;43.260;27.812;2023-01-28T11:07:18;99781.03;;;0.72;76.71
10115;BME280;5097;43.260;27.812;2023-01-28T11:10:20;99830.69;;;0.58;77.88
10115;BME280;5097;43.260;27.812;2023-01-28T11:13:19;99834.06;;;0.63;78.35
10115;BME280;5097;43.260;27.812;2023-01-28T11:16:04;99860.06;;;0.63;77.46
10115;BME280;5097;43.260;27.812;2023-01-28T11:18:51;99827.59;;;0.86;78.06
10115;BME280;5097;43.260;27.812;2023-01-28T11:21:36;99860.84;;;1.17;75.63
10115;BME280;5097;43.260;27.812;2023-01-28T11:24:24;99754.31;;;0.15;77.99
10115;BME280;5097;43.260;27.812;2023-01-28T11:27:12;99818.47;;;0.63;77.51
10115;BME280;5097;43.260;27.812;2023-01-28T11:30:00;99853.66;;;1.31;77.57
10115;BME280;5097;43.260;27.812;2023-01-28T11:32:55;99852.19;;;1.18;75.96
10115;BME280;5097;43.260;27.812;2023-01-28T11:35:41;99844.16;;;1.29;76.55
10115;BME280;5097;43.260;27.812;2023-01-28T11:38:34;99862.13;;;0.94;76.66
10115;BME280;5097;43.260;27.812;2023-01-28T11:41:25;99855.16;;;0.45;77.70
10115;BME280;5097;43.260;27.812;2023-01-28T11:44:15;99854.94;;;0.60;78.26
10115;BME280;5097;43.260;27.812;2023-01-28T11:47:11;99849.09;;;0.46;78.83
10115;BME280;5097;43.260;27.812;2023-01-28T11:50:17;99854.13;;;0.57;77.94
10115;BME280;5097;43.260;27.812;2023-01-28T11:53:27;99831.69;;;0.51;78.92
10115;BME280;5097;43.260;27.812;2023-01-28T11:56:28;99825.25;;;0.74;78.73
10115;BME280;5097;43.260;27.812;2023-01-28T11:59:27;99820.41;;;0.99;76.87
10115;BME280;5097;43.260;27.812;2023-01-28T12:02:29;99817.16;;;0.89;77.73
10115;BME280;5097;43.260;27.812;2023-01-28T12:05:34;99836.81;;;1.04;79.14
10115;BME280;5097;43.260;27.812;2023-01-28T12:08:23;99840.91;;;1.16;77.36
10115;BME280;5097;43.260;27.812;2023-01-28T12:11:20;99856.63;;;1.10;77.75
10115;BME280;5097;43.260;27.812;2023-01-28T12:14:35;99850.28;;;0.76;78.71
10115;BME280;5097;43.260;27.812;2023-01-28T12:17:29;99858.41;;;0.59;78.63
10115;BME280;5097;43.260;27.812;2023-01-28T12:20:18;99861.66;;;0.71;78.49
10115;BME280;5097;43.260;27.812;2023-01-28T12:23:19;99852.59;;;0.93;78.32
10115;BME280;5097;43.260;27.812;2023-01-28T12:26:10;99861.69;;;1.17;77.92
10115;BME280;5097;43.260;27.812;2023-01-28T12:29:03;99866.47;;;0.95;78.30
10115;BME280;5097;43.260;27.812;2023-01-28T12:32:11;99815.19;;;0.52;78.61
10115;BME280;5097;43.260;27.812;2023-01-28T12:35:13;99856.25;;;0.83;78.74
10115;BME280;5097;43.260;27.812;2023-01-28T12:38:10;99861.66;;;0.71;79.09
10115;BME280;5097;43.260;27.812;2023-01-28T12:41:02;99866.78;;;0.77;78.15
10115;BME280;5097;43.260;27.812;2023-01-28T12:43:54;99850.84;;;0.95;77.66
10115;BME280;5097;43.260;27.812;2023-01-28T12:46:41;99847.19;;;1.06;78.24
10115;BME280;5097;43.260;27.812;2023-01-28T12:49:31;99827.44;;;1.41;77.80
10115;BME280;5097;43.260;27.812;2023-01-28T12:52:19;99841.88;;;1.12;77.46
10115;BME280;5097;43.260;27.812;2023-01-28T12:55:12;99889.41;;;0.72;77.80
10115;BME280;5097;43.260;27.812;2023-01-28T12:57:58;99854.13;;;0.55;79.03
10115;BME280;5097;43.260;27.812;2023-01-28T13:00:47;99858.31;;;1.12;77.79
10115;BME280;5097;43.260;27.812;2023-01-28T13:03:35;99866.41;;;0.98;77.24
10115;BME280;5097;43.260;27.812;2023-01-28T13:06:29;99877.72;;;1.43;76.09
10115;BME280;5097;43.260;27.812;2023-01-28T13:09:17;99884.38;;;1.11;76.74
10115;BME280;5097;43.260;27.812;2023-01-28T13:12:03;99887.94;;;1.05;77.38
10115;BME280;5097;43.260;27.812;2023-01-28T13:14:48;99887.28;;;0.92;76.68
10115;BME280;5097;43.260;27.812;2023-01-28T13:17:35;99912.47;;;0.92;76.77
10115;BME280;5097;43.260;27.812;2023-01-28T13:20:29;99903.91;;;1.33;75.35
10115;BME280;5097;43.260;27.812;2023-01-28T13:23:23;99914.44;;;1.27;75.84
10115;BME280;5097;43.260;27.812;2023-01-28T13:26:23;99917.25;;;0.63;76.55
10115;BME280;5097;43.260;27.812;2023-01-28T13:29:29;99934.13;;;0.92;75.85
10115;BME280;5097;43.260;27.812;2023-01-28T13:32:31;99937.19;;;1.16;75.39
10115;BME280;5097;43.260;27.812;2023-01-28T13:35:28;99950.69;;;1.37;75.18
10115;BME280;5097;43.260;27.812;2023-01-28T13:38:17;99945.16;;;1.55;74.52
10115;BME280;5097;43.260;27.812;2023-01-28T13:41:03;99958.00;;;1.16;74.38
10115;BME280;5097;43.260;27.812;2023-01-28T13:43:47;99946.03;;;1.06;76.16
10115;BME280;5097;43.260;27.812;2023-01-28T13:46:31;99981.06;;;0.85;75.24
10115;BME280;5097;43.260;27.812;2023-01-28T13:49:21;99973.84;;;1.04;76.51
10115;BME280;5097;43.260;27.812;2023-01-28T13:52:14;99986.94;;;0.96;76.35
10115;BME280;5097;43.260;27.812;2023-01-28T13:55:03;99961.63;;;0.49;76.69
10115;BME280;5097;43.260;27.812;2023-01-28T14:01:37;99983.72;;;1.81;73.64
10115;BME280;5097;43.260;27.812;2023-01-28T14:04:45;99970.53;;;1.44;74.91
10115;BME280;5097;43.260;27.812;2023-01-28T14:10:53;99991.13;;;1.56;74.89
10115;BME280;5097;43.260;27.812;2023-01-28T14:14:08;99947.44;;;0.72;76.47
10115;BME280;5097;43.260;27.812;2023-01-28T14:17:01;99973.31;;;0.81;76.90
10115;BME280;5097;43.260;27.812;2023-01-28T14:19:48;99975.78;;;0.89;77.11
10115;BME280;5097;43.260;27.812;2023-01-28T14:22:33;100004.06;;;0.53;77.32
10115;BME280;5097;43.260;27.812;2023-01-28T14:25:29;99977.31;;;0.45;78.80
10115;BME280;5097;43.260;27.812;2023-01-28T14:28:35;99981.66;;;0.43;78.46
10115;BME280;5097;43.260;27.812;2023-01-28T14:31:26;99975.69;;;0.38;78.62
10115;BME280;5097;43.260;27.812;2023-01-28T14:34:20;99988.47;;;0.53;77.69
10115;BME280;5097;43.260;27.812;2023-01-28T14:37:08;99996.00;;;0.72;77.84
10115;BME280;5097;43.260;27.812;2023-01-28T14:39:56;100008.59;;;0.99;76.65
10115;BME280;5097;43.260;27.812;2023-01-28T14:42:42;100012.81;;;1.05;77.49
10115;BME280;5097;43.260;27.812;2023-01-28T14:45:55;100009.56;;;0.91;76.73
10115;BME280;5097;43.260;27.812;2023-01-28T14:48:47;100024.25;;;0.34;77.98
10115;BME280;5097;43.260;27.812;2023-01-28T14:51:43;100017.31;;;0.33;78.83
10115;BME280;5097;43.260;27.812;2023-01-28T14:54:41;100019.94;;;0.31;78.65
10115;BME280;5097;43.260;27.812;2023-01-28T14:57:40;99956.25;;;-0.01;78.59
10115;BME280;5097;43.260;27.812;2023-01-28T15:00:30;99973.59;;;-0.04;78.79
10115;BME280;5097;43.260;27.812;2023-01-28T15:03:16;99997.81;;;-0.01;79.12
10115;BME280;5097;43.260;27.812;2023-01-28T15:06:15;100017.78;;;0.64;78.70
10115;BME280;5097;43.260;27.812;2023-01-28T15:09:05;100014.28;;;0.65;78.32
10115;BME280;5097;43.260;27.812;2023-01-28T15:11:52;100017.28;;;0.38;78.60
10115;BME280;5097;43.260;27.812;2023-01-28T15:14:38;100028.66;;;0.27;78.66
10115;BME280;5097;43.260;27.812;2023-01-28T15:17:24;100009.59;;;0.25;78.41
10115;BME280;5097;43.260;27.812;2023-01-28T15:20:15;100024.22;;;0.36;78.91